createdAt,value
2024-01-27T00:01:49.255Z,108.21
2024-01-27T00:11:52.114Z,107.68
2024-01-27T00:21:56.504Z,107.50
2024-01-27T00:31:59.311Z,107.46
2024-01-27T00:42:03.476Z,107.16
2024-01-27T00:52:07.222Z,107.29
2024-01-27T01:02:11.554Z,108.00
2024-01-27T01:12:15.966Z,108.40
2024-01-27T01:22:20.148Z,108.80
2024-01-27T01:32:22.953Z,108.54
2024-01-27T01:42:27.200Z,109.52
2024-01-27T01:52:30.033Z,110.32
2024-01-27T02:02:34.301Z,110.59
2024-01-27T02:12:37.146Z,110.59
2024-01-27T02:22:41.257Z,110.83
2024-01-27T02:32:45.866Z,110.78
2024-01-27T02:42:48.809Z,110.63
2024-01-27T02:52:52.995Z,111.16
2024-01-27T03:02:58.226Z,111.55
2024-01-27T03:13:02.452Z,112.55
2024-01-27T03:23:05.849Z,112.52
2024-01-27T03:33:12.107Z,112.00
2024-01-27T03:43:15.120Z,111.78
2024-01-27T03:53:19.632Z,111.13
2024-01-27T04:03:22.729Z,110.97
2024-01-27T04:13:27.136Z,111.81
2024-01-27T04:23:29.981Z,111.68
2024-01-27T04:33:34.404Z,111.95
2024-01-27T04:43:37.296Z,111.87
2024-01-27T04:53:41.923Z,112.02
2024-01-27T05:03:45.362Z,112.55
2024-01-27T05:13:49.609Z,112.90
2024-01-27T05:23:52.469Z,112.44
2024-01-27T05:33:56.858Z,112.61
2024-01-27T05:43:59.887Z,112.70
2024-01-27T05:54:05.379Z,112.93
2024-01-27T06:04:09.305Z,113.22
2024-01-27T06:14:13.473Z,112.79
2024-01-27T06:24:16.355Z,112.70
2024-01-27T06:34:20.781Z,112.80
2024-01-27T06:44:23.650Z,112.92
2024-01-27T06:54:27.832Z,113.19
2024-01-27T07:04:30.676Z,113.25
2024-01-27T07:14:34.878Z,113.95
2024-01-27T07:24:37.749Z,113.54
2024-01-27T07:34:42.593Z,114.16
2024-01-27T07:44:45.395Z,114.03
2024-01-27T07:54:50.068Z,113.68
2024-01-27T08:04:52.848Z,112.88
2024-01-27T08:14:56.999Z,112.70
2024-01-27T08:24:59.800Z,112.24
2024-01-27T08:35:04.371Z,111.87
2024-01-27T08:45:08.585Z,111.09
2024-01-27T08:55:12.818Z,110.92
2024-01-27T09:05:16.268Z,109.84
2024-01-27T09:15:20.795Z,109.43
2024-01-27T09:25:23.679Z,108.59
2024-01-27T09:35:27.927Z,107.46
2024-01-27T09:45:31.335Z,105.61
2024-01-27T09:55:35.659Z,105.46
2024-01-27T10:05:40.041Z,104.39
2024-01-27T10:15:44.279Z,103.75
2024-01-27T10:25:47.252Z,103.31
2024-01-27T10:36:00.973Z,102.19
2024-01-27T10:46:07.326Z,100.18
2024-01-27T10:56:12.902Z,100.15
2024-01-27T11:06:16.862Z,99.64
2024-01-27T11:16:21.180Z,97.67
2024-01-27T11:26:27.074Z,95.58
2024-01-27T11:36:35.077Z,89.09
2024-01-27T11:46:38.446Z,92.11
2024-01-27T11:56:43.420Z,93.02
2024-01-27T12:06:46.498Z,91.73
2024-01-27T12:16:50.867Z,89.49
2024-01-27T12:26:54.022Z,60.36
2024-01-27T12:36:59.121Z,71.75
2024-01-27T12:47:02.371Z,59.53
2024-01-27T12:57:08.639Z,51.98
2024-01-27T13:07:11.868Z,48.95
2024-01-27T13:17:16.459Z,49.40
2024-01-27T13:27:19.395Z,45.76
2024-01-27T13:37:24.012Z,48.53
2024-01-27T13:47:27.106Z,46.61
2024-01-27T13:57:31.559Z,48.68
2024-01-27T14:07:34.650Z,62.61
2024-01-27T14:17:38.881Z,55.04
2024-01-27T14:27:41.777Z,47.17
2024-01-27T14:37:46.038Z,60.99
2024-01-27T14:47:50.057Z,65.14
2024-01-27T14:57:55.623Z,72.33
2024-01-27T15:07:58.484Z,76.15
2024-01-27T15:18:02.872Z,75.99
2024-01-27T15:28:06.531Z,80.50
2024-01-27T15:38:10.830Z,84.82
2024-01-27T15:48:14.299Z,85.23
2024-01-27T15:58:18.550Z,86.96
2024-01-27T16:08:21.317Z,87.34
2024-01-27T16:18:25.582Z,87.33
2024-01-27T16:28:29.106Z,89.95
2024-01-27T16:38:33.529Z,90.36
2024-01-27T16:48:36.563Z,91.82
2024-01-27T16:58:42.419Z,91.94
2024-01-27T17:08:46.274Z,91.89
2024-01-27T17:18:50.738Z,91.95
2024-01-27T17:28:53.839Z,91.95
2024-01-27T17:38:58.049Z,92.19
2024-01-27T17:49:01.868Z,92.08
2024-01-27T17:59:06.839Z,92.25
2024-01-27T18:09:10.202Z,92.71
2024-01-27T18:19:18.707Z,93.59
2024-01-27T18:29:22.546Z,94.42
2024-01-27T18:39:27.042Z,95.89
2024-01-27T18:49:29.925Z,96.46
2024-01-27T18:59:34.144Z,97.48
2024-01-27T19:09:37.426Z,97.74
2024-01-27T19:19:42.122Z,98.37
2024-01-27T19:29:45.263Z,98.85
2024-01-27T19:39:49.537Z,99.31
2024-01-27T19:49:52.606Z,100.56
2024-01-27T19:59:56.933Z,100.73
2024-01-27T20:10:01.654Z,100.60
2024-01-27T20:20:07.807Z,100.54
2024-01-27T20:30:11.854Z,100.00
2024-01-27T20:40:16.446Z,100.11
2024-01-27T20:50:19.340Z,100.19
2024-01-27T21:00:23.577Z,100.72
2024-01-27T21:10:26.983Z,101.26
2024-01-27T21:20:31.162Z,101.85
2024-01-27T21:30:34.646Z,102.45
2024-01-27T21:40:42.622Z,102.36
2024-01-27T21:50:45.716Z,102.27
2024-01-27T22:00:50.430Z,102.47
2024-01-27T22:10:53.379Z,103.07
2024-01-27T22:20:58.294Z,103.45
2024-01-27T22:31:01.129Z,103.37
2024-01-27T22:41:05.855Z,103.59
2024-01-27T22:51:08.834Z,103.99
2024-01-27T23:01:13.719Z,104.40
2024-01-27T23:11:18.048Z,104.62
2024-01-27T23:21:22.479Z,104.47
2024-01-27T23:31:25.486Z,104.98
2024-01-27T23:41:29.789Z,106.10
2024-01-27T23:51:35.784Z,106.63
